Time;durP1;ratioP1;P1;durP2;ratioP2;P2;SDS_P1;SDS_P2;PMS_P1;PMS_P2;Temp;Humidity;BMP_temperature;BMP_pressure;BME280_temperature;BME280_humidity;BME280_pressure;Samples;Min_cycle;Max_cycle;Signal;HPM_P1;HPM_P2
2023/03/11 00:01:51;;;;;;;;;34.25;33.00;;;;;;;;4968265;28;11645;-83
2023/03/11 00:04:19;;;;;;;;;49.67;43.33;;;;;;;;4967545;28;11642;-84
2023/03/11 00:06:48;;;;;;;;;44.67;40.00;;;;;;;;4971212;28;11684;-85
2023/03/11 00:09:16;;;;;;;;;43.00;38.50;;;;;;;;4978059;28;11647;-84
2023/03/11 00:11:44;;;;;;;;;36.00;34.75;;;;;;;;4976216;28;11639;-84
2023/03/11 00:14:11;;;;;;;;;40.25;37.25;;;;;;;;4969622;28;11621;-84
2023/03/11 00:16:41;;;;;;;;;50.67;45.33;;;;;;;;4970731;28;11670;-84
2023/03/11 00:19:10;;;;;;;;;55.00;47.00;;;;;;;;4968596;28;8865;-84
2023/03/11 00:21:38;;;;;;;;;39.67;37.33;;;;;;;;4970562;28;11630;-83
2023/03/11 00:24:10;;;;;;;;;48.67;40.00;;;;;;;;4970552;28;11658;-84
2023/03/11 00:26:38;;;;;;;;;37.25;35.25;;;;;;;;4971364;28;11637;-82
2023/03/11 00:29:06;;;;;;;;;35.25;30.25;;;;;;;;4964805;28;12440;-82
2023/03/11 00:31:34;;;;;;;;;39.00;34.75;;;;;;;;4967837;28;11668;-82
2023/03/11 00:34:01;;;;;;;;;38.75;37.00;;;;;;;;4970644;28;11655;-81
2023/03/11 00:36:32;;;;;;;;;38.00;34.00;;;;;;;;4970365;28;11683;-82
2023/03/11 00:39:03;;;;;;;;;34.50;34.50;;;;;;;;4970416;28;11663;-82
2023/03/11 00:41:32;;;;;;;;;36.00;32.75;;;;;;;;4970273;28;11655;-83
2023/03/11 00:43:59;;;;;;;;;37.75;31.25;;;;;;;;4972610;28;12435;-83
2023/03/11 00:46:28;;;;;;;;;27.75;27.25;;;;;;;;4968035;28;11625;-83
2023/03/11 00:48:56;;;;;;;;;31.75;30.25;;;;;;;;4970810;28;11620;-83
2023/03/11 00:51:24;;;;;;;;;32.75;30.00;;;;;;;;4973128;28;11577;-83
2023/03/11 00:53:51;;;;;;;;;29.50;27.25;;;;;;;;4972893;28;11628;-83
2023/03/11 00:56:19;;;;;;;;;34.00;34.00;;;;;;;;4974725;28;11659;-83
2023/03/11 00:58:49;;;;;;;;;36.75;32.50;;;;;;;;4977940;28;11652;-82
2023/03/11 01:01:18;;;;;;;;;38.75;32.50;;;;;;;;4982835;28;11691;-82
2023/03/11 01:03:46;;;;;;;;;32.75;29.25;;;;;;;;4977779;28;11665;-82
2023/03/11 01:06:14;;;;;;;;;16.75;16.75;;;;;;;;4982764;28;11643;-82
2023/03/11 01:08:42;;;;;;;;;23.50;21.25;;;;;;;;4982868;28;11637;-82
2023/03/11 01:11:12;;;;;;;;;23.00;20.25;;;;;;;;4980363;28;11632;-82
2023/03/11 01:13:40;;;;;;;;;21.00;19.50;;;;;;;;4982249;28;11655;-83
2023/03/11 01:16:09;;;;;;;;;28.00;26.00;;;;;;;;4978727;28;11627;-82
2023/03/11 01:18:37;;;;;;;;;21.25;21.25;;;;;;;;4987211;28;11646;-82
2023/03/11 01:21:05;;;;;;;;;22.25;22.25;;;;;;;;4988774;28;11616;-82
2023/03/11 01:23:32;;;;;;;;;23.75;21.00;;;;;;;;4989120;28;11640;-82
2023/03/11 01:26:00;;;;;;;;;25.50;20.75;;;;;;;;4959746;28;11725;-83
2023/03/11 01:28:28;;;;;;;;;17.50;17.50;;;;;;;;4977924;28;11686;-81
2023/03/11 01:30:55;;;;;;;;;17.25;17.00;;;;;;;;4942887;28;11760;-83
2023/03/11 01:33:24;;;;;;;;;19.00;16.50;;;;;;;;4974677;28;11616;-82
2023/03/11 01:35:52;;;;;;;;;19.75;16.75;;;;;;;;4974119;28;11668;-83
2023/03/11 01:38:19;;;;;;;;;21.50;18.25;;;;;;;;4978527;28;11650;-83
2023/03/11 01:40:49;;;;;;;;;17.00;15.50;;;;;;;;4969811;28;11620;-82
2023/03/11 01:43:37;;;;;;;;;17.75;17.00;;;;;;;;4970986;28;11779;-81
2023/03/11 01:46:13;;;;;;;;;16.00;16.00;;;;;;;;4976564;28;12387;-82
2023/03/11 01:48:47;;;;;;;;;14.50;12.00;;;;;;;;4975228;28;11618;-83
2023/03/11 01:51:16;;;;;;;;;14.25;14.25;;;;;;;;4979273;28;11615;-82
2023/03/11 01:53:44;;;;;;;;;16.00;16.00;;;;;;;;4975137;28;11620;-83
2023/03/11 01:56:12;;;;;;;;;16.00;16.00;;;;;;;;4970481;28;11622;-82
2023/03/11 01:58:45;;;;;;;;;12.75;11.00;;;;;;;;4972524;28;11675;-82
2023/03/11 02:01:13;;;;;;;;;21.75;20.50;;;;;;;;4960644;28;11607;-82
2023/03/11 02:03:43;;;;;;;;;50.00;40.00;;;;;;;;4990291;28;11654;-81
2023/03/11 02:06:14;;;;;;;;;59.00;45.00;;;;;;;;4980028;28;11749;-82
2023/03/11 02:08:44;;;;;;;;;29.67;26.00;;;;;;;;4977307;28;11768;-82
2023/03/11 02:11:15;;;;;;;;;41.00;37.00;;;;;;;;4983533;28;11651;-81
2023/03/11 02:13:43;;;;;;;;;22.00;22.00;;;;;;;;4976854;28;11644;-81
2023/03/11 02:16:12;;;;;;;;;31.00;25.25;;;;;;;;4977076;28;11626;-82
2023/03/11 02:18:42;;;;;;;;;26.25;25.50;;;;;;;;4976751;28;12503;-82
2023/03/11 02:21:22;;;;;;;;;33.00;26.75;;;;;;;;4978311;28;11594;-82
2023/03/11 02:23:56;;;;;;;;;35.50;30.25;;;;;;;;4977821;28;11638;-82
2023/03/11 02:26:28;;;;;;;;;24.75;20.75;;;;;;;;4974353;28;11656;-82
2023/03/11 02:28:59;;;;;;;;;18.00;18.00;;;;;;;;4980193;28;11675;-82
2023/03/11 02:31:27;;;;;;;;;16.00;15.75;;;;;;;;4971916;28;11615;-81
2023/03/11 02:33:55;;;;;;;;;14.00;14.00;;;;;;;;4973431;28;11713;-82
2023/03/11 02:36:34;;;;;;;;;21.75;18.25;;;;;;;;4972274;28;11601;-82
2023/03/11 02:39:02;;;;;;;;;20.75;19.25;;;;;;;;4978744;28;11605;-82
2023/03/11 02:41:31;;;;;;;;;19.00;19.00;;;;;;;;4978973;28;11590;-82
2023/03/11 02:44:01;;;;;;;;;18.25;16.75;;;;;;;;4975231;28;11645;-82
2023/03/11 02:46:28;;;;;;;;;25.50;19.75;;;;;;;;4976057;28;12435;-83
2023/03/11 02:48:58;;;;;;;;;26.50;26.00;;;;;;;;4980931;28;11604;-83
2023/03/11 02:51:26;;;;;;;;;34.50;30.25;;;;;;;;4977186;28;11729;-83
2023/03/11 02:53:58;;;;;;;;;26.00;21.50;;;;;;;;4977692;28;11616;-83
2023/03/11 02:56:25;;;;;;;;;27.00;23.50;;;;;;;;4972860;28;12435;-84
2023/03/11 02:58:53;;;;;;;;;22.50;22.50;;;;;;;;4974987;28;11653;-84
2023/03/11 03:01:23;;;;;;;;;24.00;24.00;;;;;;;;4977589;28;11685;-83
2023/03/11 03:03:50;;;;;;;;;26.50;25.75;;;;;;;;4971386;28;11623;-83
2023/03/11 03:06:18;;;;;;;;;24.50;24.25;;;;;;;;4976886;28;11658;-83
2023/03/11 03:08:48;;;;;;;;;29.25;25.25;;;;;;;;4983387;28;11764;-84
2023/03/11 03:11:15;;;;;;;;;25.25;25.00;;;;;;;;4982089;28;11638;-82
2023/03/11 03:13:45;;;;;;;;;19.00;19.00;;;;;;;;4995481;28;11611;-83
2023/03/11 03:16:12;;;;;;;;;18.50;18.50;;;;;;;;4979125;28;11736;-82
2023/03/11 03:18:41;;;;;;;;;16.50;16.50;;;;;;;;4973953;28;11617;-83
2023/03/11 03:21:08;;;;;;;;;19.00;16.00;;;;;;;;4972388;28;11593;-83
2023/03/11 03:23:36;;;;;;;;;20.25;16.00;;;;;;;;4970680;28;11613;-83
2023/03/11 03:26:05;;;;;;;;;18.75;16.25;;;;;;;;4973222;28;11620;-83
2023/03/11 03:28:33;;;;;;;;;15.00;15.00;;;;;;;;4975986;28;11617;-83
2023/03/11 03:31:06;;;;;;;;;15.75;14.50;;;;;;;;4971044;28;11626;-83
2023/03/11 03:33:34;;;;;;;;;13.75;13.75;;;;;;;;4976903;28;11583;-83
2023/03/11 03:36:07;;;;;;;;;16.25;16.25;;;;;;;;4971384;28;11627;-83
2023/03/11 03:38:34;;;;;;;;;20.25;15.25;;;;;;;;4975537;28;11647;-84
2023/03/11 03:41:02;;;;;;;;;11.50;10.75;;;;;;;;4974541;28;12417;-84
2023/03/11 03:43:30;;;;;;;;;15.00;12.00;;;;;;;;4972270;28;12434;-84
2023/03/11 03:45:58;;;;;;;;;10.25;10.25;;;;;;;;4972863;28;11597;-83
2023/03/11 03:48:26;;;;;;;;;9.00;9.00;;;;;;;;4975798;28;11616;-84
2023/03/11 03:50:54;;;;;;;;;10.75;10.75;;;;;;;;4971254;28;11644;-83
2023/03/11 03:53:23;;;;;;;;;7.00;7.00;;;;;;;;4972445;28;11574;-81
2023/03/11 03:55:54;;;;;;;;;12.00;10.25;;;;;;;;4980164;28;11555;-83
2023/03/11 03:58:21;;;;;;;;;11.00;10.00;;;;;;;;4974690;28;11575;-83
2023/03/11 04:00:49;;;;;;;;;5.75;5.75;;;;;;;;4974991;28;11603;-83
2023/03/11 04:03:17;;;;;;;;;11.75;10.00;;;;;;;;4980915;28;11716;-83
2023/03/11 04:05:45;;;;;;;;;10.00;10.00;;;;;;;;4977723;28;11581;-82
2023/03/11 04:08:12;;;;;;;;;9.50;9.50;;;;;;;;4975221;28;11579;-82
2023/03/11 04:10:42;;;;;;;;;16.25;11.00;;;;;;;;4969237;28;11559;-82
2023/03/11 04:13:09;;;;;;;;;7.00;7.00;;;;;;;;4972202;28;11585;-83
2023/03/11 04:15:38;;;;;;;;;7.00;7.00;;;;;;;;4954406;28;11573;-83
2023/03/11 04:18:07;;;;;;;;;10.00;9.50;;;;;;;;4971267;28;11610;-83
2023/03/11 04:20:34;;;;;;;;;9.50;6.00;;;;;;;;4976857;28;11640;-82
2023/03/11 04:23:02;;;;;;;;;10.00;10.00;;;;;;;;4971626;28;11567;-82
2023/03/11 04:25:30;;;;;;;;;9.00;9.00;;;;;;;;4972796;28;11613;-82
2023/03/11 04:27:58;;;;;;;;;10.75;10.75;;;;;;;;4976030;28;11544;-82
2023/03/11 04:30:26;;;;;;;;;11.25;7.75;;;;;;;;4973570;28;11586;-82
2023/03/11 04:32:54;;;;;;;;;12.50;10.50;;;;;;;;4971738;28;11559;-81
2023/03/11 04:35:21;;;;;;;;;11.25;11.00;;;;;;;;4980034;28;11619;-82
2023/03/11 04:37:49;;;;;;;;;9.00;7.50;;;;;;;;4976071;28;11613;-82
2023/03/11 04:40:17;;;;;;;;;14.25;10.25;;;;;;;;4976442;28;11570;-83
2023/03/11 04:42:44;;;;;;;;;9.00;7.50;;;;;;;;4976370;28;11596;-81
2023/03/11 04:45:13;;;;;;;;;14.25;11.50;;;;;;;;4976690;28;11581;-82
2023/03/11 04:47:41;;;;;;;;;16.50;14.50;;;;;;;;4978779;28;12368;-82
2023/03/11 04:50:10;;;;;;;;;15.75;14.00;;;;;;;;4979315;28;11619;-82
2023/03/11 04:52:38;;;;;;;;;11.00;11.00;;;;;;;;4970494;28;11626;-82
2023/03/11 04:55:07;;;;;;;;;15.25;15.25;;;;;;;;4973986;28;11612;-82
2023/03/11 04:57:34;;;;;;;;;15.00;13.00;;;;;;;;4972432;28;11624;-83
2023/03/11 05:00:03;;;;;;;;;16.75;14.50;;;;;;;;4981376;28;11608;-83
2023/03/11 05:02:33;;;;;;;;;11.25;11.25;;;;;;;;4991864;28;11587;-82
2023/03/11 05:05:01;;;;;;;;;11.75;11.75;;;;;;;;4990316;28;11641;-82
2023/03/11 05:07:28;;;;;;;;;12.50;12.50;;;;;;;;4981113;28;11625;-83
2023/03/11 05:09:56;;;;;;;;;12.00;12.00;;;;;;;;4973448;28;11601;-84
2023/03/11 05:12:23;;;;;;;;;11.00;11.00;;;;;;;;4975806;28;12529;-82
2023/03/11 05:14:51;;;;;;;;;7.00;7.00;;;;;;;;4974418;28;11635;-83
2023/03/11 05:17:20;;;;;;;;;9.50;8.25;;;;;;;;4974889;28;11551;-83
2023/03/11 05:19:49;;;;;;;;;10.00;10.00;;;;;;;;4975018;28;11608;-83
2023/03/11 05:22:17;;;;;;;;;13.25;13.25;;;;;;;;4986764;28;11581;-83
2023/03/11 05:24:45;;;;;;;;;10.25;10.25;;;;;;;;4975796;28;12420;-84
2023/03/11 05:27:15;;;;;;;;;14.00;11.00;;;;;;;;4967850;28;11596;-85
2023/03/11 05:29:42;;;;;;;;;11.25;9.25;;;;;;;;4973397;28;11594;-84
2023/03/11 05:32:10;;;;;;;;;11.75;9.00;;;;;;;;4978649;28;11558;-84
2023/03/11 05:34:39;;;;;;;;;8.75;8.75;;;;;;;;4979405;28;11592;-82
2023/03/11 05:37:08;;;;;;;;;10.75;10.75;;;;;;;;4975958;28;11586;-83
2023/03/11 05:39:36;;;;;;;;;10.00;10.00;;;;;;;;4970188;28;11607;-84
2023/03/11 05:42:08;;;;;;;;;11.25;9.25;;;;;;;;4972842;28;11604;-84
2023/03/11 05:44:36;;;;;;;;;15.50;12.00;;;;;;;;4971607;28;11572;-84
2023/03/11 05:47:04;;;;;;;;;7.75;7.75;;;;;;;;4978550;28;11650;-84
2023/03/11 05:49:32;;;;;;;;;14.00;11.25;;;;;;;;4977076;28;11667;-83
2023/03/11 05:52:00;;;;;;;;;10.50;10.50;;;;;;;;4976380;28;11640;-84
2023/03/11 05:54:29;;;;;;;;;9.25;9.25;;;;;;;;4977169;28;11577;-83
2023/03/11 05:56:56;;;;;;;;;8.00;8.00;;;;;;;;4976631;28;11603;-85
2023/03/11 05:59:24;;;;;;;;;16.50;13.50;;;;;;;;4977211;28;11589;-83
2023/03/11 06:01:52;;;;;;;;;12.00;10.00;;;;;;;;4981991;28;11744;-82
2023/03/11 06:04:20;;;;;;;;;12.00;12.00;;;;;;;;4974920;28;11629;-82
2023/03/11 06:06:47;;;;;;;;;13.75;10.00;;;;;;;;4979343;28;11691;-75
2023/03/11 06:09:15;;;;;;;;;13.50;13.50;;;;;;;;4974790;28;11636;-72
2023/03/11 06:11:45;;;;;;;;;13.50;10.75;;;;;;;;4972031;28;11609;-71
2023/03/11 06:14:13;;;;;;;;;11.25;10.75;;;;;;;;4961547;28;11619;-74
2023/03/11 06:16:41;;;;;;;;;19.75;19.75;;;;;;;;4976064;28;11584;-75
2023/03/11 06:19:08;;;;;;;;;14.25;14.25;;;;;;;;4972145;28;11591;-76
2023/03/11 06:21:37;;;;;;;;;11.50;11.50;;;;;;;;4979398;28;11744;-75
2023/03/11 06:24:05;;;;;;;;;18.25;15.25;;;;;;;;4976576;28;11639;-75
2023/03/11 06:26:32;;;;;;;;;18.75;14.00;;;;;;;;4958585;28;11616;-75
2023/03/11 06:29:01;;;;;;;;;17.50;17.50;;;;;;;;4975195;28;11711;-74
2023/03/11 06:31:30;;;;;;;;;23.50;20.75;;;;;;;;4970146;28;12392;-75
2023/03/11 06:33:58;;;;;;;;;22.33;20.33;;;;;;;;4987891;28;11714;-76
2023/03/11 06:36:27;;;;;;;;;25.00;21.33;;;;;;;;4988680;28;11639;-73
2023/03/11 06:38:55;;;;;;;;;25.00;18.33;;;;;;;;4955456;28;11700;-72
2023/03/11 06:41:22;;;;;;;;;20.67;18.33;;;;;;;;4973138;28;11646;-71
2023/03/11 06:43:50;;;;;;;;;17.75;16.75;;;;;;;;4980422;28;11703;-72
2023/03/11 06:46:21;;;;;;;;;14.25;14.25;;;;;;;;4976714;28;11591;-72
2023/03/11 06:48:50;;;;;;;;;19.25;18.00;;;;;;;;4976052;28;11605;-72
2023/03/11 06:51:19;;;;;;;;;16.33;16.33;;;;;;;;4978071;28;11609;-74
2023/03/11 06:53:50;;;;;;;;;17.00;17.00;;;;;;;;4973264;28;11614;-72
2023/03/11 06:56:19;;;;;;;;;24.33;20.00;;;;;;;;4976614;28;11768;-73
2023/03/11 06:58:47;;;;;;;;;21.33;17.00;;;;;;;;4981144;28;11631;-73
2023/03/11 07:01:15;;;;;;;;;11.67;11.67;;;;;;;;4977026;28;11754;-74
2023/03/11 07:03:46;;;;;;;;;18.33;18.33;;;;;;;;4971758;28;11629;-73
2023/03/11 07:06:18;;;;;;;;;13.00;13.00;;;;;;;;4972142;28;11633;-72
2023/03/11 07:08:49;;;;;;;;;20.33;20.33;;;;;;;;4974995;28;11627;-72
2023/03/11 07:11:19;;;;;;;;;20.67;18.00;;;;;;;;4972847;28;11618;-72
2023/03/11 07:13:47;;;;;;;;;20.67;18.00;;;;;;;;4974748;28;11623;-72
2023/03/11 07:16:16;;;;;;;;;25.67;21.67;;;;;;;;4968161;28;11672;-73
2023/03/11 07:18:47;;;;;;;;;36.67;34.33;;;;;;;;4977343;28;9690;-73
2023/03/11 07:21:16;;;;;;;;;21.67;21.67;;;;;;;;4972735;28;8909;-77
2023/03/11 07:23:43;;;;;;;;;63.00;52.33;;;;;;;;4971903;28;11663;-76
2023/03/11 07:26:11;;;;;;;;;21.67;21.67;;;;;;;;4971764;28;8866;-75
2023/03/11 07:28:39;;;;;;;;;18.75;18.75;;;;;;;;4974614;28;11731;-75
2023/03/11 07:31:13;;;;;;;;;17.00;17.00;;;;;;;;4971868;28;11617;-75
2023/03/11 07:33:41;;;;;;;;;29.67;24.00;;;;;;;;4972363;28;12478;-74
2023/03/11 07:36:12;;;;;;;;;27.00;26.25;;;;;;;;4975436;28;11623;-74
2023/03/11 07:38:41;;;;;;;;;29.25;25.00;;;;;;;;4975042;28;11631;-74
2023/03/11 07:41:09;;;;;;;;;18.50;15.75;;;;;;;;4973750;28;11615;-74
2023/03/11 07:43:37;;;;;;;;;14.00;14.00;;;;;;;;4971276;28;11606;-74
2023/03/11 07:46:06;;;;;;;;;12.00;12.00;;;;;;;;4975888;28;12366;-74
2023/03/11 07:48:33;;;;;;;;;15.00;14.75;;;;;;;;4977316;28;11612;-74
2023/03/11 07:51:02;;;;;;;;;20.00;18.75;;;;;;;;4971772;28;11708;-74
2023/03/11 07:53:31;;;;;;;;;14.50;14.50;;;;;;;;4969180;28;11655;-74
2023/03/11 07:56:00;;;;;;;;;15.75;15.75;;;;;;;;4976790;28;12452;-74
2023/03/11 07:58:27;;;;;;;;;10.25;10.25;;;;;;;;4975579;28;11627;-74
2023/03/11 08:00:55;;;;;;;;;11.00;11.00;;;;;;;;4973954;28;12413;-73
2023/03/11 08:03:24;;;;;;;;;10.75;10.75;;;;;;;;4971999;28;11605;-74
2023/03/11 08:05:52;;;;;;;;;13.00;12.25;;;;;;;;4974470;28;11682;-76
2023/03/11 08:08:20;;;;;;;;;9.25;9.25;;;;;;;;4974014;28;11739;-73
2023/03/11 08:10:50;;;;;;;;;12.25;8.75;;;;;;;;4974370;28;11557;-73
2023/03/11 08:13:17;;;;;;;;;9.25;9.25;;;;;;;;4970964;28;11599;-73
2023/03/11 08:15:45;;;;;;;;;9.00;9.00;;;;;;;;4970084;28;11592;-73
2023/03/11 08:18:13;;;;;;;;;7.00;7.00;;;;;;;;4973914;28;11622;-74
2023/03/11 08:20:40;;;;;;;;;9.50;6.25;;;;;;;;4968033;28;11542;-74
2023/03/11 08:23:10;;;;;;;;;7.00;6.00;;;;;;;;4972243;28;11612;-76
2023/03/11 08:25:39;;;;;;;;;6.50;5.00;;;;;;;;4977096;28;11565;-75
2023/03/11 08:28:09;;;;;;;;;10.50;7.00;;;;;;;;4972118;28;11551;-76
2023/03/11 08:30:36;;;;;;;;;7.50;7.50;;;;;;;;4967082;28;11580;-73
2023/03/11 08:33:04;;;;;;;;;10.75;8.50;;;;;;;;4975214;28;12381;-73
2023/03/11 08:35:34;;;;;;;;;1.50;1.50;;;;;;;;4970886;28;11559;-81
2023/03/11 08:38:02;;;;;;;;;5.75;5.75;;;;;;;;4968784;28;11714;-76
2023/03/11 08:40:30;;;;;;;;;3.00;3.00;;;;;;;;4971240;28;11634;-75
2023/03/11 08:42:58;;;;;;;;;2.00;2.00;;;;;;;;4954742;28;11658;-74
2023/03/11 08:45:27;;;;;;;;;2.00;2.00;;;;;;;;4968369;28;11558;-75
2023/03/11 08:47:54;;;;;;;;;3.25;3.25;;;;;;;;4978056;28;11565;-74
2023/03/11 08:50:22;;;;;;;;;2.00;2.00;;;;;;;;4975069;28;11572;-74
2023/03/11 08:52:50;;;;;;;;;3.00;3.00;;;;;;;;4975146;28;11558;-74
2023/03/11 08:55:23;;;;;;;;;2.00;2.00;;;;;;;;4974030;28;11579;-73
2023/03/11 08:57:51;;;;;;;;;6.00;4.50;;;;;;;;4972200;28;12401;-75
2023/03/11 09:00:21;;;;;;;;;2.00;2.00;;;;;;;;4968011;28;11582;-73
2023/03/11 09:02:50;;;;;;;;;0.00;0.00;;;;;;;;4968279;28;11582;-74
2023/03/11 09:05:17;;;;;;;;;3.75;2.25;;;;;;;;4975518;28;11623;-74
2023/03/11 09:07:45;;;;;;;;;3.00;3.00;;;;;;;;4974549;28;11561;-74
2023/03/11 09:10:14;;;;;;;;;3.50;1.25;;;;;;;;4971125;28;11553;-74
2023/03/11 09:12:44;;;;;;;;;0.25;0.25;;;;;;;;4972360;28;11569;-74
2023/03/11 09:15:12;;;;;;;;;1.00;1.00;;;;;;;;4974823;28;12261;-74
2023/03/11 09:17:39;;;;;;;;;2.25;1.00;;;;;;;;4974683;28;12370;-74
2023/03/11 09:20:11;;;;;;;;;1.00;1.00;;;;;;;;4974854;28;11611;-74
2023/03/11 09:22:39;;;;;;;;;0.25;0.25;;;;;;;;4974839;28;11507;-73
2023/03/11 09:25:08;;;;;;;;;2.00;1.00;;;;;;;;4974466;28;12296;-73
2023/03/11 09:27:36;;;;;;;;;1.25;1.25;;;;;;;;4978025;28;11508;-74
2023/03/11 09:30:04;;;;;;;;;2.00;2.00;;;;;;;;4960478;28;11514;-74
2023/03/11 09:32:31;;;;;;;;;1.00;1.00;;;;;;;;4980380;28;11487;-73
2023/03/11 09:35:02;;;;;;;;;2.00;2.00;;;;;;;;4978479;28;11493;-73
2023/03/11 09:37:31;;;;;;;;;3.00;3.00;;;;;;;;4971542;28;11522;-77
2023/03/11 09:39:59;;;;;;;;;3.00;2.75;;;;;;;;4978422;28;11530;-73
2023/03/11 09:42:31;;;;;;;;;4.00;2.00;;;;;;;;4980462;28;11552;-72
2023/03/11 09:45:04;;;;;;;;;2.00;2.00;;;;;;;;4982123;28;11501;-79
2023/03/11 09:47:39;;;;;;;;;4.00;2.00;;;;;;;;4978343;28;11485;-78
2023/03/11 09:50:17;;;;;;;;;3.75;3.00;;;;;;;;4978010;28;11521;-74
2023/03/11 09:52:51;;;;;;;;;5.00;2.75;;;;;;;;4976791;28;11558;-72
2023/03/11 09:55:32;;;;;;;;;2.00;2.00;;;;;;;;4970586;28;11496;-74
2023/03/11 09:58:03;;;;;;;;;6.75;4.00;;;;;;;;4968815;28;11525;-74
2023/03/11 10:00:31;;;;;;;;;4.25;3.00;;;;;;;;4973021;28;11542;-73
2023/03/11 10:03:00;;;;;;;;;3.00;3.00;;;;;;;;4971345;28;11492;-73
2023/03/11 10:05:29;;;;;;;;;1.25;1.00;;;;;;;;4973257;28;11280;-73
2023/03/11 10:08:03;;;;;;;;;5.00;1.25;;;;;;;;4968254;28;11902;-74
2023/03/11 10:10:34;;;;;;;;;9.75;9.75;;;;;;;;4975228;28;11304;-73
2023/03/11 10:13:12;;;;;;;;;2.00;2.00;;;;;;;;4969715;28;11550;-73
2023/03/11 10:15:47;;;;;;;;;4.00;4.00;;;;;;;;4971720;28;11533;-73
2023/03/11 10:18:34;;;;;;;;;2.00;2.00;;;;;;;;4969405;28;11503;-73
2023/03/11 10:21:06;;;;;;;;;3.00;3.00;;;;;;;;4973005;28;11271;-73
2023/03/11 10:23:43;;;;;;;;;1.50;1.50;;;;;;;;4974066;28;11096;-73
2023/03/11 10:26:14;;;;;;;;;1.00;1.00;;;;;;;;4971367;28;10855;-73
2023/03/11 10:28:47;;;;;;;;;2.00;2.00;;;;;;;;4970072;28;11002;-73
2023/03/11 10:31:21;;;;;;;;;1.75;1.75;;;;;;;;4968724;28;10859;-72
2023/03/11 10:33:53;;;;;;;;;2.00;2.00;;;;;;;;4970786;28;10850;-72
2023/03/11 10:36:25;;;;;;;;;3.00;3.00;;;;;;;;4976123;28;11592;-73
2023/03/11 10:38:55;;;;;;;;;1.00;1.00;;;;;;;;4974922;28;11063;-73
2023/03/11 10:41:27;;;;;;;;;1.75;1.75;;;;;;;;4969876;28;10702;-74
2023/03/11 10:44:00;;;;;;;;;1.00;1.00;;;;;;;;4972397;28;11396;-73
2023/03/11 10:46:28;;;;;;;;;0.75;0.75;;;;;;;;4975681;28;10573;-73
2023/03/11 10:48:56;;;;;;;;;1.50;1.50;;;;;;;;4971069;28;10353;-73
2023/03/11 10:51:25;;;;;;;;;2.50;2.00;;;;;;;;4969113;28;10408;-72
2023/03/11 10:53:57;;;;;;;;;2.00;2.00;;;;;;;;4968558;28;10433;-73
2023/03/11 10:56:30;;;;;;;;;1.00;1.00;;;;;;;;4971110;28;10576;-72
2023/03/11 10:58:58;;;;;;;;;0.25;0.25;;;;;;;;4977044;28;10392;-73
2023/03/11 11:01:27;;;;;;;;;1.25;1.25;;;;;;;;4970998;28;11383;-73
2023/03/11 11:03:56;;;;;;;;;3.25;3.25;;;;;;;;4972119;28;10391;-73
2023/03/11 11:06:27;;;;;;;;;3.00;3.00;;;;;;;;4972886;28;10517;-73
2023/03/11 11:09:16;;;;;;;;;3.00;3.00;;;;;;;;4973329;28;10324;-73
2023/03/11 11:11:44;;;;;;;;;2.75;2.75;;;;;;;;4977179;28;10452;-73
2023/03/11 11:14:12;;;;;;;;;1.75;1.75;;;;;;;;4966018;28;11227;-73
2023/03/11 11:16:39;;;;;;;;;0.75;0.75;;;;;;;;4972921;28;10265;-73
2023/03/11 11:19:11;;;;;;;;;2.75;2.75;;;;;;;;4970713;28;10284;-74
2023/03/11 11:21:44;;;;;;;;;1.75;1.75;;;;;;;;4972691;28;10263;-72
2023/03/11 11:24:20;;;;;;;;;2.00;2.00;;;;;;;;4971972;28;10113;-73
2023/03/11 11:27:13;;;;;;;;;3.50;2.50;;;;;;;;4969079;28;10807;-74
2023/03/11 11:29:41;;;;;;;;;3.00;3.00;;;;;;;;4970733;28;10248;-72
2023/03/11 11:32:19;;;;;;;;;3.00;3.00;;;;;;;;4975736;28;10180;-74
2023/03/11 11:34:57;;;;;;;;;4.00;3.75;;;;;;;;4977783;28;10061;-73
2023/03/11 11:37:30;;;;;;;;;2.00;2.00;;;;;;;;4966258;28;10198;-74
2023/03/11 11:40:08;;;;;;;;;3.00;3.00;;;;;;;;4972471;28;10111;-73
2023/03/11 11:42:37;;;;;;;;;4.25;4.00;;;;;;;;4971712;28;10887;-74
2023/03/11 11:45:14;;;;;;;;;4.00;2.25;;;;;;;;4974190;28;10292;-72
2023/03/11 11:47:45;;;;;;;;;3.00;3.00;;;;;;;;4970481;28;10280;-73
2023/03/11 11:50:18;;;;;;;;;4.50;3.00;;;;;;;;4975579;28;10401;-74
2023/03/11 11:52:49;;;;;;;;;3.75;3.75;;;;;;;;4971712;28;10325;-74
2023/03/11 11:55:21;;;;;;;;;2.75;2.00;;;;;;;;4974474;28;10438;-74
2023/03/11 11:57:50;;;;;;;;;3.00;3.00;;;;;;;;4974679;28;10400;-73
2023/03/11 12:00:20;;;;;;;;;3.50;3.50;;;;;;;;4971869;28;10350;-73
2023/03/11 12:03:03;;;;;;;;;4.75;4.75;;;;;;;;4974705;28;10276;-74
2023/03/11 12:05:33;;;;;;;;;3.50;3.50;;;;;;;;4972526;28;10282;-73
2023/03/11 12:08:10;;;;;;;;;3.50;3.50;;;;;;;;4968589;28;10196;-73
2023/03/11 12:10:46;;;;;;;;;3.00;3.00;;;;;;;;4973408;28;10215;-73
2023/03/11 12:13:30;;;;;;;;;4.00;4.00;;;;;;;;4971077;28;10304;-73
2023/03/11 12:16:02;;;;;;;;;3.75;3.75;;;;;;;;4961289;28;10309;-74
2023/03/11 12:18:34;;;;;;;;;4.75;4.00;;;;;;;;4970481;28;10362;-73
2023/03/11 12:21:10;;;;;;;;;3.75;3.75;;;;;;;;4973165;28;10272;-74
2023/03/11 12:23:46;;;;;;;;;6.00;4.00;;;;;;;;4970299;28;10203;-72
2023/03/11 12:26:21;;;;;;;;;3.50;3.50;;;;;;;;4971080;28;10251;-73
2023/03/11 12:28:53;;;;;;;;;3.50;2.75;;;;;;;;4970048;28;10261;-73
2023/03/11 12:31:23;;;;;;;;;3.00;3.00;;;;;;;;4971050;28;10278;-72
2023/03/11 12:33:54;;;;;;;;;3.50;3.50;;;;;;;;4974947;28;10212;-73
2023/03/11 12:36:25;;;;;;;;;4.50;3.25;;;;;;;;4970016;28;10304;-73
2023/03/11 12:38:54;;;;;;;;;3.25;2.50;;;;;;;;4969682;28;10279;-74
2023/03/11 12:41:38;;;;;;;;;4.00;2.00;;;;;;;;4967589;28;10264;-74
2023/03/11 12:44:23;;;;;;;;;4.00;4.00;;;;;;;;4978713;28;10266;-74
2023/03/11 12:47:21;;;;;;;;;3.00;2.25;;;;;;;;4972985;28;10272;-73
2023/03/11 12:49:53;;;;;;;;;4.50;4.50;;;;;;;;4970150;28;10313;-73
2023/03/11 12:52:26;;;;;;;;;2.00;2.00;;;;;;;;4975646;28;10305;-73
2023/03/11 12:55:33;;;;;;;;;4.00;4.00;;;;;;;;4970590;28;10166;-74
2023/03/11 12:58:36;;;;;;;;;3.75;3.75;;;;;;;;4964544;28;10365;-74
2023/03/11 13:01:22;;;;;;;;;3.75;3.75;;;;;;;;4978408;28;10377;-73
2023/03/11 13:04:00;;;;;;;;;3.25;3.00;;;;;;;;4976072;28;11179;-73
2023/03/11 13:06:58;;;;;;;;;3.00;3.00;;;;;;;;4968887;28;10436;-74
2023/03/11 13:09:26;;;;;;;;;4.75;4.75;;;;;;;;4967162;28;10415;-74
2023/03/11 13:11:53;;;;;;;;;3.75;3.75;;;;;;;;4971708;28;10449;-74
2023/03/11 13:14:29;;;;;;;;;5.75;4.00;;;;;;;;4974579;28;10295;-74
2023/03/11 13:16:57;;;;;;;;;3.25;3.25;;;;;;;;4972793;28;10424;-74
2023/03/11 13:19:37;;;;;;;;;4.25;4.00;;;;;;;;4974195;28;10420;-73
2023/03/11 13:22:06;;;;;;;;;7.00;6.25;;;;;;;;4968449;28;11286;-72
2023/03/11 13:24:54;;;;;;;;;3.50;3.50;;;;;;;;4975481;28;10641;-73
2023/03/11 13:27:35;;;;;;;;;3.00;3.00;;;;;;;;4952114;28;10665;-74
2023/03/11 13:30:11;;;;;;;;;4.25;3.00;;;;;;;;4975332;28;10559;-74
2023/03/11 13:33:03;;;;;;;;;4.50;4.50;;;;;;;;4971295;28;11347;-74
2023/03/11 13:35:48;;;;;;;;;7.00;3.25;;;;;;;;4954282;28;10569;-74
2023/03/11 13:38:37;;;;;;;;;3.50;3.50;;;;;;;;4971869;28;10646;-74
2023/03/11 13:41:14;;;;;;;;;3.00;3.00;;;;;;;;4974972;28;10679;-74
2023/03/11 13:43:45;;;;;;;;;4.25;3.00;;;;;;;;4972433;28;10551;-73
2023/03/11 13:46:20;;;;;;;;;3.50;3.50;;;;;;;;4974636;28;10573;-73
2023/03/11 13:48:51;;;;;;;;;6.00;4.50;;;;;;;;4975078;28;10490;-73
2023/03/11 13:51:23;;;;;;;;;5.25;4.00;;;;;;;;4969633;28;10653;-73
2023/03/11 13:53:56;;;;;;;;;2.00;2.00;;;;;;;;4972415;28;10604;-75
2023/03/11 13:56:28;;;;;;;;;4.75;4.75;;;;;;;;4976226;28;10540;-74
2023/03/11 13:58:56;;;;;;;;;3.00;3.00;;;;;;;;4972933;28;10602;-73
2023/03/11 14:01:25;;;;;;;;;2.25;2.25;;;;;;;;4971009;28;10528;-76
2023/03/11 14:03:52;;;;;;;;;4.00;2.75;;;;;;;;4970932;28;11219;-75
2023/03/11 14:06:20;;;;;;;;;2.75;1.00;;;;;;;;4970152;28;10671;-74
2023/03/11 14:08:54;;;;;;;;;3.00;3.00;;;;;;;;4967260;28;10589;-74
2023/03/11 14:11:27;;;;;;;;;2.00;2.00;;;;;;;;4973163;28;10733;-74
2023/03/11 14:13:55;;;;;;;;;2.00;2.00;;;;;;;;4968931;28;11264;-74
2023/03/11 14:16:30;;;;;;;;;2.00;2.00;;;;;;;;4974228;28;10738;-73
2023/03/11 14:19:03;;;;;;;;;4.00;4.00;;;;;;;;4971911;28;10584;-75
2023/03/11 14:21:31;;;;;;;;;2.00;2.00;;;;;;;;4970535;28;10469;-74
2023/03/11 14:23:59;;;;;;;;;4.00;4.00;;;;;;;;4971631;28;10556;-73
2023/03/11 14:26:29;;;;;;;;;5.00;5.00;;;;;;;;4973380;28;10797;-74
2023/03/11 14:28:59;;;;;;;;;12.50;12.50;;;;;;;;4973953;28;11888;-72
2023/03/11 14:31:32;;;;;;;;;11.75;11.75;;;;;;;;4971196;28;12364;-74
2023/03/11 14:34:03;;;;;;;;;9.25;9.25;;;;;;;;4974602;28;11118;-75
2023/03/11 14:36:43;;;;;;;;;8.00;6.75;;;;;;;;4972087;28;11115;-74
2023/03/11 14:39:38;;;;;;;;;5.00;5.00;;;;;;;;4972496;28;11140;-72
2023/03/11 14:42:11;;;;;;;;;1.75;1.75;;;;;;;;4939069;28;10863;-71
2023/03/11 14:44:40;;;;;;;;;5.25;5.25;;;;;;;;4973853;28;10679;-71
2023/03/11 14:47:16;;;;;;;;;8.00;8.00;;;;;;;;4976371;28;10796;-72
2023/03/11 14:49:43;;;;;;;;;11.25;11.25;;;;;;;;4967200;28;11162;-72